Time;durP1;ratioP1;P1;durP2;ratioP2;P2;SDS_P1;SDS_P2;PMS_P1;PMS_P2;Temp;Humidity;BMP_temperature;BMP_pressure;BME280_temperature;BME280_humidity;BME280_pressure;Samples;Min_cycle;Max_cycle;Signal;HPM_P1;HPM_P2
2022/03/23 00:01:21;;;;;;;;;;;;;;;21.47;19.77;98962.16;5074387;28;1676;-73
2022/03/23 00:03:47;;;;;;;;;;;;;;;22.12;19.30;98961.41;5075269;28;1020;-73
2022/03/23 00:06:13;;;;;;;;;;;;;;;22.45;18.82;98956.88;5074965;28;1901;-73
2022/03/23 00:08:38;;;;;;;;;;;;;;;22.15;18.95;98955.69;5074702;28;1031;-73
2022/03/23 00:11:04;;;;;;;;;;;;;;;21.68;19.75;98957.47;5058767;28;1549;-72
2022/03/23 00:13:30;;;;;;;;;;;;;;;21.45;19.89;98953.28;5054963;28;1087;-73
2022/03/23 00:15:55;;;;;;;;;;;;;;;21.74;19.61;98953.75;5055273;28;1226;-73
2022/03/23 00:18:21;;;;;;;;;;;;;;;22.20;19.23;98962.91;5054810;28;933;-73
2022/03/23 00:20:46;;;;;;;;;;;;;;;22.50;18.93;98950.75;5040855;28;1692;-72
2022/03/23 00:23:13;;;;;;;;;;;;;;;21.90;19.48;98949.50;5074478;28;1001;-73
2022/03/23 00:25:38;;;;;;;;;;;;;;;21.79;19.58;98944.78;5074394;28;1902;-73
2022/03/23 00:28:04;;;;;;;;;;;;;;;21.42;20.09;98950.50;5054257;28;1679;-72
2022/03/23 00:30:31;;;;;;;;;;;;;;;21.95;19.34;98949.03;5039865;28;1063;-73
2022/03/23 00:32:57;;;;;;;;;;;;;;;22.35;18.90;98952.97;5034291;28;1310;-73
2022/03/23 00:35:23;;;;;;;;;;;;;;;22.44;18.83;98955.28;5034285;28;997;-73
2022/03/23 00:37:48;;;;;;;;;;;;;;;21.85;19.53;98937.41;5028482;28;1709;-73
2022/03/23 00:40:14;;;;;;;;;;;;;;;21.61;19.72;98949.88;5014520;28;1224;-73
2022/03/23 00:42:40;;;;;;;;;;;;;;;21.66;19.72;98932.41;5014685;28;1011;-73
2022/03/23 00:45:06;;;;;;;;;;;;;;;22.18;19.19;98940.66;5014417;28;1242;-73
2022/03/23 00:47:31;;;;;;;;;;;;;;;22.44;18.98;98938.28;5014520;28;1906;-73
2022/03/23 00:49:58;;;;;;;;;;;;;;;21.84;19.43;98935.81;5014418;28;984;-73
2022/03/23 00:52:23;;;;;;;;;;;;;;;21.58;19.68;98933.72;4994578;28;1105;-73
2022/03/23 00:54:48;;;;;;;;;;;;;;;21.54;19.97;98932.94;4994155;28;1806;-72
2022/03/23 00:57:14;;;;;;;;;;;;;;;22.23;19.02;98923.19;4994115;28;1828;-73
2022/03/23 00:59:39;;;;;;;;;;;;;;;22.46;18.77;98924.47;4994006;28;1779;-73
2022/03/23 01:02:10;;;;;;;;;;;;;;;22.16;19.22;98917.59;4994599;28;1063;-73
2022/03/23 01:04:36;;;;;;;;;;;;;;;21.63;19.81;98923.94;4987623;28;1736;-73
2022/03/23 01:07:02;;;;;;;;;;;;;;;21.45;19.86;98921.31;4994073;28;1931;-72
2022/03/23 01:09:27;;;;;;;;;;;;;;;21.97;19.24;98901.25;5009167;28;1025;-73
2022/03/23 01:11:53;;;;;;;;;;;;;;;22.29;19.09;98907.28;5014051;28;1069;-72
2022/03/23 01:14:19;;;;;;;;;;;;;;;22.39;18.69;98899.84;5013526;28;1708;-73
2022/03/23 01:16:45;;;;;;;;;;;;;;;21.82;19.60;98904.28;5013941;28;944;-73
2022/03/23 01:19:11;;;;;;;;;;;;;;;21.51;19.64;98900.63;5013876;28;952;-72
2022/03/23 01:21:38;;;;;;;;;;;;;;;21.70;19.48;98902.00;4991306;28;1180;-72
2022/03/23 01:24:05;;;;;;;;;;;;;;;22.27;18.85;98906.09;4990484;28;1691;-73
2022/03/23 01:26:32;;;;;;;;;;;;;;;22.40;18.80;98898.63;4959584;28;1906;-73
2022/03/23 01:28:57;;;;;;;;;;;;;;;22.42;18.81;98901.03;4955175;28;931;-73
2022/03/23 01:31:23;;;;;;;;;;;;;;;21.83;19.54;98905.88;4955185;29;1032;-73
2022/03/23 01:33:48;;;;;;;;;;;;;;;21.62;19.81;98896.88;4957943;28;1654;-72
2022/03/23 01:36:14;;;;;;;;;;;;;;;21.87;19.69;98897.34;4996506;28;1025;-73
2022/03/23 01:38:39;;;;;;;;;;;;;;;22.26;19.18;98899.63;5013506;28;1076;-73
2022/03/23 01:41:05;;;;;;;;;;;;;;;22.41;19.00;98894.56;5013394;28;1462;-73
2022/03/23 01:43:33;;;;;;;;;;;;;;;21.93;19.19;98897.66;4955114;29;1316;-72
2022/03/23 01:46:01;;;;;;;;;;;;;;;21.70;19.66;98896.31;4939210;29;1989;-73
2022/03/23 01:48:26;;;;;;;;;;;;;;;21.56;19.66;98890.88;4935654;29;1021;-73
2022/03/23 01:50:55;;;;;;;;;;;;;;;22.17;19.26;98896.53;4935869;29;1000;-72
2022/03/23 01:53:21;;;;;;;;;;;;;;;22.45;18.80;98891.66;4935731;29;1021;-72
2022/03/23 01:55:46;;;;;;;;;;;;;;;22.43;18.72;98880.72;4919849;29;1683;-72
2022/03/23 01:58:12;;;;;;;;;;;;;;;21.83;19.50;98897.38;4905807;29;1055;-73
2022/03/23 02:00:38;;;;;;;;;;;;;;;21.50;20.01;98881.22;4967456;28;1483;-72
2022/03/23 02:03:05;;;;;;;;;;;;;;;22.00;19.43;98887.03;4958703;28;1101;-72
2022/03/23 02:05:32;;;;;;;;;;;;;;;22.27;18.85;98889.09;4938322;28;1981;-72
2022/03/23 02:07:57;;;;;;;;;;;;;;;22.53;18.72;98890.31;4954793;29;998;-72
2022/03/23 02:10:24;;;;;;;;;;;;;;;21.91;19.34;98888.78;4954749;28;1222;-73
2022/03/23 02:13:09;;;;;;;;;;;;;;;21.58;19.83;98894.06;4999425;28;1653;-73
2022/03/23 02:15:35;;;;;;;;;;;;;;;21.84;19.68;98890.47;5010410;28;1039;-72
2022/03/23 02:18:01;;;;;;;;;;;;;;;22.35;19.07;98899.09;4995132;28;1007;-72
2022/03/23 02:20:27;;;;;;;;;;;;;;;22.68;18.48;98899.38;5031858;28;1435;-72
2022/03/23 02:22:52;;;;;;;;;;;;;;;22.00;19.16;98892.69;5024214;28;1731;-72
2022/03/23 02:25:18;;;;;;;;;;;;;;;21.66;19.58;98901.25;5013028;28;1247;-73
2022/03/23 02:27:44;;;;;;;;;;;;;;;21.44;20.09;98900.69;5012858;28;1918;-73
2022/03/23 02:30:09;;;;;;;;;;;;;;;22.06;19.22;98898.69;5020034;28;1043;-72
2022/03/23 02:32:35;;;;;;;;;;;;;;;22.54;18.92;98897.59;5014205;28;1800;-72
2022/03/23 02:35:00;;;;;;;;;;;;;;;22.52;18.60;98900.06;5032503;28;1144;-72
2022/03/23 02:37:26;;;;;;;;;;;;;;;21.82;19.53;98906.31;5032771;28;1004;-73
2022/03/23 02:39:52;;;;;;;;;;;;;;;21.66;19.56;98901.25;5032538;28;1018;-73
2022/03/23 02:42:17;;;;;;;;;;;;;;;21.88;19.47;98896.09;5038892;28;1720;-73
2022/03/23 02:44:43;;;;;;;;;;;;;;;22.36;19.01;98893.00;5072444;28;949;-73
2022/03/23 02:47:09;;;;;;;;;;;;;;;22.54;18.72;98903.28;5072439;28;1986;-73
2022/03/23 02:49:34;;;;;;;;;;;;;;;22.38;18.69;98894.59;5072358;28;1122;-72
2022/03/23 02:52:00;;;;;;;;;;;;;;;21.71;19.49;98892.28;5073510;28;1689;-73
2022/03/23 03:02:59;;;;;;;;;;;;;;;22.51;18.50;98893.56;5083788;28;1642;-72
2022/03/23 03:05:25;;;;;;;;;;;;;;;22.65;18.53;98892.56;5072351;28;1894;-73
2022/03/23 03:10:34;;;;;;;;;;;;;;;21.69;19.36;98906.06;5072250;28;992;-73
2022/03/23 03:13:00;;;;;;;;;;;;;;;21.51;19.61;98902.66;5080358;28;1697;-73
2022/03/23 03:15:25;;;;;;;;;;;;;;;22.06;19.30;98895.84;5092626;28;1024;-73
2022/03/23 03:17:51;;;;;;;;;;;;;;;22.35;18.82;98897.06;5092220;28;1078;-73
2022/03/23 03:20:17;;;;;;;;;;;;;;;22.55;18.66;98899.19;5091868;28;1070;-73
2022/03/23 03:22:43;;;;;;;;;;;;;;;22.59;18.23;98888.59;5086451;28;1646;-73
2022/03/23 03:25:11;;;;;;;;;;;;;;;21.78;19.43;98886.53;5071999;28;973;-73
2022/03/23 03:27:37;;;;;;;;;;;;;;;21.60;19.46;98888.78;5072019;28;1914;-72
2022/03/23 03:30:05;;;;;;;;;;;;;;;21.51;19.73;98888.50;5068492;28;1492;-72
2022/03/23 03:32:31;;;;;;;;;;;;;;;22.26;18.59;98882.63;5061045;28;1622;-73
2022/03/23 03:34:56;;;;;;;;;;;;;;;22.44;18.71;98881.56;5078153;28;948;-72
2022/03/23 03:37:22;;;;;;;;;;;;;;;22.61;18.29;98886.94;5078319;28;991;-73
2022/03/23 03:39:47;;;;;;;;;;;;;;;21.84;18.97;98884.03;5078255;28;899;-72
2022/03/23 03:42:13;;;;;;;;;;;;;;;21.61;19.54;98893.22;5076567;28;1630;-72
2022/03/23 03:44:39;;;;;;;;;;;;;;;21.72;19.50;98899.56;5055398;28;975;-73
2022/03/23 03:47:05;;;;;;;;;;;;;;;21.52;19.82;98895.75;5055377;28;1910;-72
2022/03/23 03:49:30;;;;;;;;;;;;;;;21.56;19.46;98890.88;5035280;28;1121;-72
2022/03/23 03:51:57;;;;;;;;;;;;;;;21.57;19.40;98892.47;5034537;28;1490;-73
2022/03/23 03:54:22;;;;;;;;;;;;;;;21.42;19.56;98894.66;5035271;28;1009;-72
2022/03/23 03:56:48;;;;;;;;;;;;;;;21.51;19.62;98894.16;5035356;28;983;-72
2022/03/23 03:59:13;;;;;;;;;;;;;;;21.24;19.95;98891.19;5018380;28;1875;-72
2022/03/23 04:01:39;;;;;;;;;;;;;;;21.23;19.70;98901.72;5015418;28;1030;-73
2022/03/23 04:04:04;;;;;;;;;;;;;;;21.18;19.95;98882.34;5033957;28;1691;-72
2022/03/23 04:06:30;;;;;;;;;;;;;;;21.26;19.89;98883.91;5034898;28;1898;-72
2022/03/23 04:08:55;;;;;;;;;;;;;;;21.19;19.78;98886.00;5035318;28;1115;-72
2022/03/23 04:11:21;;;;;;;;;;;;;;;21.12;19.77;98884.03;5035187;28;1144;-73
2022/03/23 04:13:46;;;;;;;;;;;;;;;21.12;19.97;98895.38;5018458;28;1790;-72
2022/03/23 04:16:12;;;;;;;;;;;;;;;21.19;19.93;98891.66;5030691;28;1726;-72
2022/03/23 04:18:37;;;;;;;;;;;;;;;20.91;20.09;98892.75;5034866;28;1018;-72
2022/03/23 04:21:03;;;;;;;;;;;;;;;21.00;20.21;98881.75;5034727;28;1044;-72
2022/03/23 04:23:28;;;;;;;;;;;;;;;21.00;20.21;98891.03;5060920;28;1812;-72
2022/03/23 04:25:55;;;;;;;;;;;;;;;20.96;20.29;98880.97;5074952;28;1965;-72
2022/03/23 04:28:21;;;;;;;;;;;;;;;20.93;20.22;98887.47;5077232;28;933;-72
2022/03/23 04:30:47;;;;;;;;;;;;;;;20.45;20.69;98891.09;5077065;28;955;-72
2022/03/23 04:33:13;;;;;;;;;;;;;;;20.32;20.68;98870.22;5103760;28;1753;-73
2022/03/23 04:35:39;;;;;;;;;;;;;;;20.89;20.18;98881.06;5094772;28;1069;-72
2022/03/23 04:38:05;;;;;;;;;;;;;;;20.92;19.83;98885.88;5094830;28;999;-72
2022/03/23 04:40:31;;;;;;;;;;;;;;;20.50;20.61;98888.66;5094695;28;1056;-73
2022/03/23 04:42:57;;;;;;;;;;;;;;;19.87;21.02;98884.22;5094739;28;944;-72
2022/03/23 04:45:22;;;;;;;;;;;;;;;20.19;20.85;98878.38;5108012;28;1710;-72
2022/03/23 04:47:48;;;;;;;;;;;;;;;20.68;20.38;98888.53;5096684;28;1905;-72
2022/03/23 04:50:13;;;;;;;;;;;;;;;20.84;20.24;98890.00;5094497;28;1078;-72
2022/03/23 04:52:39;;;;;;;;;;;;;;;20.16;20.76;98880.03;5094325;28;1019;-72
2022/03/23 04:55:05;;;;;;;;;;;;;;;20.49;20.43;98886.25;5094530;28;927;-72
2022/03/23 04:57:31;;;;;;;;;;;;;;;20.89;20.08;98886.72;5053589;28;2342;-72
2022/03/23 04:59:58;;;;;;;;;;;;;;;20.83;20.20;98883.53;5054303;28;1163;-72
2022/03/23 05:02:25;;;;;;;;;;;;;;;20.90;20.05;98880.63;5054177;28;902;-72
2022/03/23 05:04:50;;;;;;;;;;;;;;;20.55;20.48;98882.56;5018682;28;1055;-72
2022/03/23 05:07:15;;;;;;;;;;;;;;;20.93;20.00;98881.81;5014178;28;1981;-73
2022/03/23 05:09:41;;;;;;;;;;;;;;;20.80;19.87;98885.16;5014215;28;1230;-73
2022/03/23 05:12:07;;;;;;;;;;;;;;;20.28;20.36;98893.66;5013770;28;1125;-73
2022/03/23 05:14:32;;;;;;;;;;;;;;;20.28;20.32;98882.34;5014143;28;1021;-73
2022/03/23 05:16:58;;;;;;;;;;;;;;;20.66;20.10;98888.13;5013954;28;970;-73
2022/03/23 05:19:23;;;;;;;;;;;;;;;20.77;19.80;98886.00;5013846;28;1069;-72
2022/03/23 05:21:49;;;;;;;;;;;;;;;20.72;20.11;98889.28;5014201;28;936;-73
2022/03/23 05:24:14;;;;;;;;;;;;;;;20.75;19.96;98888.44;5014085;28;1056;-72
2022/03/23 05:26:40;;;;;;;;;;;;;;;20.75;19.77;98888.44;5013635;28;1969;-72
2022/03/23 05:29:05;;;;;;;;;;;;;;;20.68;20.04;98893.38;5013968;28;1080;-73
2022/03/23 05:31:30;;;;;;;;;;;;;;;21.90;18.96;98892.84;5013819;28;967;-73
2022/03/23 05:33:56;;;;;;;;;;;;;;;22.11;18.56;98892.56;5016320;28;1024;-73
2022/03/23 05:36:21;;;;;;;;;;;;;;;22.15;18.16;98886.84;5053521;28;1022;-73
2022/03/23 05:38:47;;;;;;;;;;;;;;;22.28;18.30;98905.69;5053416;28;1002;-73
2022/03/23 05:41:13;;;;;;;;;;;;;;;22.21;18.07;98902.94;5036667;28;1007;-73
2022/03/23 05:43:38;;;;;;;;;;;;;;;22.28;18.04;98908.53;5056030;28;1042;-73
2022/03/23 05:46:04;;;;;;;;;;;;;;;22.29;17.96;98909.34;5055666;28;1977;-73
2022/03/23 05:48:29;;;;;;;;;;;;;;;22.39;17.94;98901.91;5093170;28;1019;-73
2022/03/23 05:50:55;;;;;;;;;;;;;;;21.85;18.40;98909.09;5093722;28;1102;-73
2022/03/23 05:53:20;;;;;;;;;;;;;;;21.41;19.19;98910.06;5092794;28;1023;-73
2022/03/23 05:55:45;;;;;;;;;;;;;;;21.38;18.90;98912.91;5093498;28;971;-73
2022/03/23 05:58:11;;;;;;;;;;;;;;;21.92;18.66;98913.06;5093225;28;951;-73
2022/03/23 06:00:36;;;;;;;;;;;;;;;22.23;17.93;98917.50;5093382;28;1039;-73
2022/03/23 06:03:02;;;;;;;;;;;;;;;22.35;18.02;98908.41;5093183;28;973;-73
2022/03/23 06:05:27;;;;;;;;;;;;;;;22.47;18.09;98914.72;5093454;28;1013;-73
2022/03/23 06:07:53;;;;;;;;;;;;;;;21.72;18.42;98910.88;5093032;28;1917;-73
2022/03/23 06:10:18;;;;;;;;;;;;;;;21.50;18.83;98909.53;5093220;28;995;-73
2022/03/23 06:12:44;;;;;;;;;;;;;;;21.76;18.59;98911.66;5093276;28;960;-73
2022/03/23 06:15:11;;;;;;;;;;;;;;;22.20;17.98;98904.19;5092915;28;1052;-73
2022/03/23 06:17:37;;;;;;;;;;;;;;;22.51;17.67;98912.63;5092627;28;1216;-73
2022/03/23 06:20:02;;;;;;;;;;;;;;;22.42;17.83;98898.19;5064488;28;1237;-73
2022/03/23 06:22:28;;;;;;;;;;;;;;;21.83;18.24;98900.22;5055371;28;916;-73
2022/03/23 06:24:53;;;;;;;;;;;;;;;21.66;18.67;98894.75;5055185;28;920;-73
2022/03/23 06:27:19;;;;;;;;;;;;;;;21.31;19.04;98903.28;5055371;28;1968;-73
2022/03/23 06:29:44;;;;;;;;;;;;;;;22.22;18.00;98898.06;5055152;28;918;-73
2022/03/23 06:32:10;;;;;;;;;;;;;;;22.43;17.63;98896.94;5054922;28;1077;-73
2022/03/23 06:34:35;;;;;;;;;;;;;;;22.65;17.31;98898.22;5054840;28;960;-73
2022/03/23 06:37:01;;;;;;;;;;;;;;;22.27;17.80;98901.22;5055105;28;946;-73
2022/03/23 06:39:29;;;;;;;;;;;;;;;21.64;18.60;98898.03;5052539;28;1022;-73
2022/03/23 06:41:54;;;;;;;;;;;;;;;21.45;18.70;98901.50;5052406;28;1136;-73
2022/03/23 06:44:19;;;;;;;;;;;;;;;22.08;18.24;98893.41;5052489;28;917;-73
2022/03/23 06:46:45;;;;;;;;;;;;;;;22.47;17.70;98904.16;5052428;28;1898;-73
2022/03/23 06:49:12;;;;;;;;;;;;;;;22.50;17.53;98905.34;5052279;28;1049;-73
2022/03/23 06:51:37;;;;;;;;;;;;;;;22.30;17.79;98903.22;5012598;28;1123;-73
2022/03/23 06:54:03;;;;;;;;;;;;;;;21.77;18.28;98896.25;5012587;28;1045;-73
2022/03/23 06:56:28;;;;;;;;;;;;;;;21.55;18.53;98906.22;4979832;28;969;-73
2022/03/23 06:58:54;;;;;;;;;;;;;;;21.75;18.17;98907.19;5012501;28;1143;-73
2022/03/23 07:01:19;;;;;;;;;;;;;;;22.16;17.87;98903.44;5012644;28;1058;-73
2022/03/23 07:03:44;;;;;;;;;;;;;;;22.41;17.76;98899.41;5012174;28;1069;-73
2022/03/23 07:06:10;;;;;;;;;;;;;;;22.49;17.59;98900.94;4976000;28;1902;-73
2022/03/23 07:14:16;;;;;;;;;;;;;;;22.15;17.83;98904.66;5108275;22;2120;-77
2022/03/23 07:16:43;;;;;;;;;;;;;;;22.88;16.88;98889.72;4979665;28;996;-77
2022/03/23 07:19:08;;;;;;;;;;;;;;;21.93;17.84;98904.13;4979873;28;1012;-77
2022/03/23 07:21:34;;;;;;;;;;;;;;;21.62;18.40;98903.31;4980533;28;973;-77
2022/03/23 07:23:59;;;;;;;;;;;;;;;21.96;17.81;98902.47;4979159;28;1087;-75
2022/03/23 07:26:25;;;;;;;;;;;;;;;22.38;17.57;98897.44;4980431;28;1906;-77
2022/03/23 07:28:50;;;;;;;;;;;;;;;22.62;17.11;98913.25;4979259;28;1016;-77
2022/03/23 07:31:16;;;;;;;;;;;;;;;22.45;16.91;98897.34;4980186;28;957;-77
2022/03/23 07:33:41;;;;;;;;;;;;;;;21.75;17.84;98909.22;4978918;28;1013;-78
2022/03/23 07:36:06;;;;;;;;;;;;;;;21.52;18.00;98907.88;4979967;28;1012;-77
2022/03/23 07:38:32;;;;;;;;;;;;;;;21.53;18.11;98914.34;4979224;28;893;-78
2022/03/23 07:40:57;;;;;;;;;;;;;;;22.24;17.38;98896.44;4979835;28;1003;-77
2022/03/23 07:43:23;;;;;;;;;;;;;;;22.45;16.83;98906.66;4978914;28;1039;-78
2022/03/23 07:45:48;;;;;;;;;;;;;;;22.64;16.67;98896.63;4979749;28;1927;-77
2022/03/23 07:48:16;;;;;;;;;;;;;;;22.75;16.76;98902.91;5151374;22;3778;-73
2022/03/23 07:50:41;;;;;;;;;;;;;;;22.73;16.49;98905.38;4939890;29;971;-73
2022/03/23 07:53:07;;;;;;;;;;;;;;;21.80;17.56;98906.72;4939489;29;983;-73
2022/03/23 07:55:32;;;;;;;;;;;;;;;21.64;17.48;98897.22;4924031;29;960;-73
2022/03/23 07:57:58;;;;;;;;;;;;;;;22.01;17.36;98913.31;4939718;29;1003;-73
2022/03/23 08:00:23;;;;;;;;;;;;;;;22.41;16.85;98902.25;4939694;29;850;-73
2022/03/23 08:02:50;;;;;;;;;;;;;;;22.58;16.66;98898.31;4920230;29;1037;-73
2022/03/23 08:05:15;;;;;;;;;;;;;;;21.68;17.23;98910.13;4920410;29;1061;-73
2022/03/23 08:07:41;;;;;;;;;;;;;;;21.65;17.47;98910.97;4920413;29;1922;-73
2022/03/23 08:10:07;;;;;;;;;;;;;;;21.49;17.50;98907.94;4920383;29;964;-73
2022/03/23 08:12:32;;;;;;;;;;;;;;;21.84;17.31;98909.50;4920698;29;1039;-73
2022/03/23 08:14:57;;;;;;;;;;;;;;;22.27;16.73;98918.25;4920466;29;984;-73
2022/03/23 08:17:23;;;;;;;;;;;;;;;22.49;16.60;98906.59;4900256;29;1042;-74
2022/03/23 08:20:32;;;;;;;;;;;;;;;22.30;16.54;98905.25;4885473;29;964;-73
2022/03/23 08:22:34;;;;;;;;;;;;;;;21.71;17.30;98908.47;4933964;29;1350;-73
2022/03/23 08:24:59;;;;;;;;;;;;;;;21.64;17.18;98912.19;4922570;29;1012;-73
2022/03/23 08:27:25;;;;;;;;;;;;;;;22.14;16.77;98894.56;4920012;29;1918;-73
2022/03/23 08:29:50;;;;;;;;;;;;;;;22.42;16.39;98895.34;4920077;29;1022;-73
2022/03/23 08:32:16;;;;;;;;;;;;;;;22.52;16.30;98905.72;4919879;29;1004;-74
2022/03/23 08:34:41;;;;;;;;;;;;;;;21.90;16.77;98909.84;4923911;29;1017;-73
2022/03/23 08:37:07;;;;;;;;;;;;;;;21.69;16.78;98905.25;4958086;29;926;-73
2022/03/23 08:39:32;;;;;;;;;;;;;;;21.48;17.05;98912.00;4958052;29;915;-73
2022/03/23 08:41:58;;;;;;;;;;;;;;;21.88;16.56;98906.66;4958101;29;981;-73
2022/03/23 08:44:23;;;;;;;;;;;;;;;22.29;16.38;98898.78;4958163;29;986;-73
2022/03/23 08:46:49;;;;;;;;;;;;;;;22.52;16.08;98900.06;4957793;29;1979;-73
2022/03/23 08:49:14;;;;;;;;;;;;;;;22.28;16.12;98907.72;4974641;28;946;-74
2022/03/23 08:51:40;;;;;;;;;;;;;;;21.66;16.80;98884.25;4977208;28;988;-73
2022/03/23 08:54:05;;;;;;;;;;;;;;;21.38;16.88;98893.09;4992738;28;1114;-73
2022/03/23 08:56:31;;;;;;;;;;;;;;;21.97;16.20;98904.91;4998676;28;917;-73
2022/03/23 08:58:56;;;;;;;;;;;;;;;22.27;16.35;98889.09;4998529;28;1060;-73
2022/03/23 09:01:22;;;;;;;;;;;;;;;22.64;15.76;98893.78;4998815;28;972;-73
2022/03/23 09:03:47;;;;;;;;;;;;;;;21.99;16.18;98890.28;4964443;28;1045;-73
2022/03/23 09:06:13;;;;;;;;;;;;;;;21.73;16.58;98892.66;4998668;28;1977;-73
2022/03/23 09:08:38;;;;;;;;;;;;;;;21.51;16.75;98882.84;4963935;28;1066;-73
2022/03/23 09:11:04;;;;;;;;;;;;;;;22.27;16.08;98872.88;4998381;28;964;-73
2022/03/23 09:13:29;;;;;;;;;;;;;;;22.67;15.42;98884.41;4963761;28;1016;-73
2022/03/23 09:15:55;;;;;;;;;;;;;;;22.73;15.57;98877.00;4998244;28;989;-74
2022/03/23 09:18:20;;;;;;;;;;;;;;;22.00;15.98;98877.72;4998155;28;1017;-73
2022/03/23 09:20:46;;;;;;;;;;;;;;;21.67;16.54;98880.19;4997956;28;963;-73
2022/03/23 09:23:12;;;;;;;;;;;;;;;21.84;16.15;98895.34;4998383;28;974;-73
2022/03/23 09:25:38;;;;;;;;;;;;;;;22.34;15.78;98889.81;4998192;28;1012;-74
2022/03/23 09:28:03;;;;;;;;;;;;;;;22.56;15.59;98886.63;4956248;28;1148;-74
2022/03/23 09:30:29;;;;;;;;;;;;;;;22.22;15.64;98892.41;4956627;29;1054;-73
2022/03/23 09:32:54;;;;;;;;;;;;;;;21.71;16.19;98883.78;4956836;28;996;-74
2022/03/23 09:35:20;;;;;;;;;;;;;;;21.58;16.17;98888.41;4956791;29;893;-73
2022/03/23 09:37:48;;;;;;;;;;;;;;;21.92;16.04;98893.25;4956835;28;1095;-74
2022/03/23 09:40:16;;;;;;;;;;;;;;;22.43;15.41;98886.41;4957048;28;994;-73
2022/03/23 09:42:42;;;;;;;;;;;;;;;22.65;14.94;98881.19;4956745;28;1002;-74
2022/03/23 09:45:07;;;;;;;;;;;;;;;22.45;15.23;98871.81;4899772;29;978;-74
2022/03/23 09:47:33;;;;;;;;;;;;;;;21.75;15.99;98870.38;4880208;29;1907;-73
2022/03/23 09:49:58;;;;;;;;;;;;;;;21.54;16.17;98862.16;4881083;29;992;-73
2022/03/23 09:52:24;;;;;;;;;;;;;;;22.01;15.72;98868.00;4880766;29;981;-73
2022/03/23 09:54:49;;;;;;;;;;;;;;;22.36;15.09;98875.97;4880973;29;1009;-73
2022/03/23 09:57:15;;;;;;;;;;;;;;;22.50;14.94;98868.50;4881051;29;1047;-74
2022/03/23 09:59:41;;;;;;;;;;;;;;;21.92;15.64;98868.53;4880642;29;999;-73
2022/03/23 10:02:26;;;;;;;;;;;;;;;21.65;15.61;98876.97;4881054;29;923;-73
2022/03/23 10:05:24;;;;;;;;;;;;;;;21.87;15.72;98876.72;4880774;29;1164;-73
2022/03/23 10:07:50;;;;;;;;;;;;;;;22.29;14.94;98850.59;4898993;29;1911;-73
2022/03/23 10:10:30;;;;;;;;;;;;;;;22.55;14.59;98859.50;4899393;29;992;-73
2022/03/23 10:13:14;;;;;;;;;;;;;;;22.56;14.93;98861.09;4899259;29;988;-73
2022/03/23 10:15:39;;;;;;;;;;;;;;;21.69;15.58;98865.59;4926298;29;2042;-74
2022/03/23 10:18:10;;;;;;;;;;;;;;;21.64;15.45;98863.25;4955870;29;969;-73
2022/03/23 10:20:36;;;;;;;;;;;;;;;21.87;15.24;98865.38;4956337;29;1063;-73
2022/03/23 10:23:01;;;;;;;;;;;;;;;22.39;14.80;98856.53;4955909;29;1083;-73
2022/03/23 10:25:28;;;;;;;;;;;;;;;22.39;14.78;98854.50;4956219;29;1054;-73
2022/03/23 10:27:55;;;;;;;;;;;;;;;22.47;14.61;98852.31;4956070;29;2028;-73
2022/03/23 10:30:30;;;;;;;;;;;;;;;21.70;15.09;98856.69;4956192;29;1005;-73
2022/03/23 10:32:56;;;;;;;;;;;;;;;21.50;15.52;98847.22;4956110;29;914;-73
2022/03/23 10:35:21;;;;;;;;;;;;;;;21.77;15.17;98845.25;4956312;29;1098;-73
2022/03/23 10:37:48;;;;;;;;;;;;;;;22.29;14.64;98856.25;4956184;29;989;-73
2022/03/23 10:40:14;;;;;;;;;;;;;;;22.57;14.17;98840.78;4939143;29;979;-73
2022/03/23 10:42:40;;;;;;;;;;;;;;;22.61;14.37;98840.75;4956562;29;1103;-74
2022/03/23 10:45:08;;;;;;;;;;;;;;;21.99;14.70;98833.63;4937004;29;962;-73
2022/03/23 10:47:34;;;;;;;;;;;;;;;21.70;15.11;98842.50;4945600;29;1985;-73
2022/03/23 10:50:08;;;;;;;;;;;;;;;21.61;14.96;98841.47;4956016;29;896;-73
2022/03/23 10:52:34;;;;;;;;;;;;;;;22.16;14.57;98832.56;4956042;29;982;-73
2022/03/23 10:55:00;;;;;;;;;;;;;;;22.48;14.34;98842.56;4955911;29;987;-73
2022/03/23 10:57:46;;;;;;;;;;;;;;;22.48;14.28;98837.72;4956041;29;1041;-73
2022/03/23 11:00:14;;;;;;;;;;;;;;;21.76;14.85;98838.00;4955832;29;1002;-73
2022/03/23 11:02:48;;;;;;;;;;;;;;;21.59;14.84;98822.84;4955934;29;1179;-73
2022/03/23 11:05:40;;;;;;;;;;;;;;;22.20;14.30;98830.47;4955846;29;1055;-73
2022/03/23 11:08:20;;;;;;;;;;;;;;;22.53;14.18;98828.69;4917639;29;1976;-73
2022/03/23 11:16:27;;;;;;;;;;;;;;;21.64;14.62;98815.91;4887800;29;989;-72
2022/03/23 11:19:18;;;;;;;;;;;;;;;22.00;14.63;98812.53;4860999;29;1030;-72
2022/03/23 11:22:02;;;;;;;;;;;;;;;22.41;14.21;98815.16;4824754;29;996;-72
2022/03/23 11:24:32;;;;;;;;;;;;;;;22.50;14.01;98814.59;4824755;29;1075;-72
2022/03/23 11:26:58;;;;;;;;;;;;;;;21.75;14.58;98808.03;4824761;29;1903;-72
2022/03/23 11:29:23;;;;;;;;;;;;;;;21.48;14.77;98816.53;4824504;29;1027;-73
2022/03/23 11:31:49;;;;;;;;;;;;;;;21.83;14.49;98812.38;4787884;29;1361;-72
2022/03/23 11:34:17;;;;;;;;;;;;;;;22.40;14.11;98801.41;4788391;29;1037;-72
2022/03/23 11:36:42;;;;;;;;;;;;;;;22.48;13.93;98800.03;4788433;29;1083;-72
2022/03/23 11:39:08;;;;;;;;;;;;;;;22.21;14.04;98800.91;4788232;30;1052;-72
2022/03/23 11:41:33;;;;;;;;;;;;;;;21.75;14.45;98807.25;4788854;29;980;-73
2022/03/23 11:43:58;;;;;;;;;;;;;;;21.52;14.39;98805.16;4790467;29;1044;-73
2022/03/23 11:46:24;;;;;;;;;;;;;;;22.15;13.83;98813.16;4806098;29;1895;-74
2022/03/23 11:48:50;;;;;;;;;;;;;;;22.41;13.83;98808.69;4807118;29;1452;-74
2022/03/23 11:51:34;;;;;;;;;;;;;;;22.60;13.70;98796.59;4838140;29;1009;-74
2022/03/23 11:54:00;;;;;;;;;;;;;;;21.87;13.99;98786.84;4845978;29;987;-74
2022/03/23 11:56:28;;;;;;;;;;;;;;;21.73;14.02;98787.06;4846281;29;945;-74
2022/03/23 11:58:53;;;;;;;;;;;;;;;22.00;13.85;98792.72;4889804;29;1186;-74
2022/03/23 12:01:19;;;;;;;;;;;;;;;22.38;13.68;98784.00;4920135;29;1055;-74
2022/03/23 12:03:46;;;;;;;;;;;;;;;22.56;13.20;98787.34;4944170;29;1304;-74
2022/03/23 12:06:12;;;;;;;;;;;;;;;22.02;13.94;98774.06;4932928;29;1985;-73
2022/03/23 12:08:54;;;;;;;;;;;;;;;21.79;14.05;98780.47;4963972;28;1255;-73
2022/03/23 12:11:38;;;;;;;;;;;;;;;21.63;14.22;98785.97;4997217;28;957;-73
2022/03/23 12:14:05;;;;;;;;;;;;;;;22.25;13.63;98784.63;4997093;28;1218;-73
2022/03/23 12:16:45;;;;;;;;;;;;;;;22.51;13.37;98779.34;4958505;28;1145;-73
2022/03/23 12:19:11;;;;;;;;;;;;;;;21.96;13.76;98789.13;4950874;28;1293;-73
2022/03/23 12:21:56;;;;;;;;;;;;;;;21.68;14.04;98791.16;4948985;28;1417;-73
2022/03/23 12:24:40;;;;;;;;;;;;;;;21.53;13.99;98776.41;4948552;28;1512;-73
2022/03/23 12:27:07;;;;;;;;;;;;;;;22.18;13.50;98790.44;4960699;28;1976;-74
2022/03/23 12:29:37;;;;;;;;;;;;;;;22.51;13.10;98782.16;4951442;28;1361;-73
2022/03/23 12:32:05;;;;;;;;;;;;;;;22.32;13.14;98789.38;4919016;29;1337;-73
2022/03/23 12:34:31;;;;;;;;;;;;;;;21.71;14.00;98770.50;4903410;29;1256;-73
2022/03/23 12:37:06;;;;;;;;;;;;;;;21.53;13.91;98769.94;4919181;29;1287;-73
2022/03/23 12:39:32;;;;;;;;;;;;;;;22.15;13.50;98779.94;4907871;29;1288;-73
2022/03/23 12:41:59;;;;;;;;;;;;;;;22.60;13.22;98782.41;4917255;29;1485;-73
2022/03/23 12:44:30;;;;;;;;;;;;;;;22.62;12.90;98780.72;4919552;29;1057;-73
2022/03/23 12:46:55;;;;;;;;;;;;;;;21.80;13.63;98773.56;4918122;29;1980;-73
2022/03/23 12:57:49;;;;;;;;;;;;;;;22.61;13.09;98772.66;4919529;29;968;-73
2022/03/23 13:00:35;;;;;;;;;;;;;;;21.80;13.43;98759.41;4919667;29;1110;-73
2022/03/23 13:03:07;;;;;;;;;;;;;;;21.64;13.87;98764.91;4919075;29;1010;-73
2022/03/23 13:05:33;;;;;;;;;;;;;;;21.63;13.91;98766.16;4919425;29;962;-74
2022/03/23 13:07:58;;;;;;;;;;;;;;;22.25;13.29;98773.28;4919383;29;1899;-73
2022/03/23 13:10:26;;;;;;;;;;;;;;;22.50;12.94;98766.41;4962424;28;993;-73
2022/03/23 13:13:05;;;;;;;;;;;;;;;22.10;13.53;98767.06;4996168;28;988;-73
2022/03/23 13:15:30;;;;;;;;;;;;;;;21.59;13.75;98765.41;5018559;28;963;-73
2022/03/23 13:17:56;;;;;;;;;;;;;;;21.46;14.06;98761.56;5037746;28;1079;-73
2022/03/23 13:20:21;;;;;;;;;;;;;;;22.08;13.56;98757.38;4976347;28;1072;-73
2022/03/23 13:22:47;;;;;;;;;;;;;;;22.49;13.24;98770.47;4968072;28;1300;-73
2022/03/23 13:25:13;;;;;;;;;;;;;;;22.31;13.37;98754.56;4964945;28;1257;-73
2022/03/23 13:27:38;;;;;;;;;;;;;;;21.67;13.89;98755.59;4944295;29;2039;-73
2022/03/23 13:30:13;;;;;;;;;;;;;;;21.61;13.84;98757.28;4937771;29;955;-73